createdAt,value
2018-12-30T02:51:50.256Z,18.07
2018-12-30T02:54:14.518Z,17.90
2018-12-30T02:56:42.350Z,18.57
2018-12-30T02:59:10.175Z,18.90
2018-12-30T03:01:38.052Z,19.63
2018-12-30T03:04:05.964Z,18.20
2018-12-30T03:06:33.880Z,17.83
2018-12-30T03:09:01.724Z,19.07
2018-12-30T03:11:29.603Z,19.03
2018-12-30T03:13:57.506Z,17.80
2018-12-30T03:16:25.389Z,19.10
2018-12-30T03:18:53.243Z,17.43
2018-12-30T03:21:21.102Z,17.13
2018-12-30T03:23:48.966Z,18.10
2018-12-30T03:26:16.850Z,17.87
2018-12-30T03:28:44.967Z,17.33
2018-12-30T03:31:12.892Z,18.67
2018-12-30T03:33:41.803Z,18.40
2018-12-30T03:36:09.649Z,16.50
2018-12-30T03:38:37.500Z,17.70
2018-12-30T03:41:05.344Z,16.73
2018-12-30T03:43:33.291Z,17.63
2018-12-30T03:46:01.167Z,17.40
2018-12-30T03:48:29.005Z,17.80
2018-12-30T03:50:56.873Z,17.50
2018-12-30T03:53:24.726Z,17.47
2018-12-30T03:55:52.674Z,18.10
2018-12-30T03:58:20.542Z,15.93
2018-12-30T04:00:48.376Z,16.87
2018-12-30T04:03:16.208Z,17.70
2018-12-30T04:05:44.133Z,16.03
2018-12-30T04:08:12.002Z,15.63
2018-12-30T04:10:39.872Z,17.10
2018-12-30T04:13:07.711Z,17.80
2018-12-30T04:15:35.580Z,16.20
2018-12-30T04:18:03.467Z,16.47
2018-12-30T04:20:31.314Z,15.80
2018-12-30T04:22:59.143Z,17.77
2018-12-30T04:25:27.006Z,18.07
2018-12-30T04:27:54.934Z,16.47
2018-12-30T04:30:22.803Z,17.23
2018-12-30T04:32:50.679Z,17.40
2018-12-30T04:35:18.524Z,16.70
2018-12-30T04:37:46.637Z,17.77
2018-12-30T04:40:14.463Z,16.50
2018-12-30T04:42:42.312Z,17.50
2018-12-30T04:45:10.158Z,17.40
2018-12-30T04:47:37.989Z,15.80
2018-12-30T04:50:05.906Z,17.30
2018-12-30T04:52:33.764Z,17.30
2018-12-30T04:55:01.633Z,17.30
2018-12-30T04:57:29.544Z,15.43
2018-12-30T04:59:57.524Z,16.83
2018-12-30T05:02:25.369Z,15.90
2018-12-30T05:04:53.206Z,16.43
2018-12-30T05:07:21.084Z,16.13
2018-12-30T05:09:48.960Z,15.80
2018-12-30T05:12:16.834Z,16.07
2018-12-30T05:14:44.629Z,17.40
2018-12-30T05:17:12.474Z,16.40
2018-12-30T05:19:40.379Z,16.87
2018-12-30T05:22:08.306Z,16.57
2018-12-30T05:24:36.149Z,16.00
2018-12-30T05:27:04.047Z,16.10
2018-12-30T05:29:31.864Z,16.23
2018-12-30T05:32:01.269Z,15.33
2018-12-30T05:34:29.142Z,16.43
2018-12-30T05:36:57.137Z,16.43
2018-12-30T05:39:25.245Z,15.17
2018-12-30T05:41:53.083Z,15.77
2018-12-30T05:44:20.967Z,15.63
2018-12-30T05:46:48.818Z,15.83
2018-12-30T05:49:16.725Z,17.00
2018-12-30T05:51:44.610Z,16.10
2018-12-30T05:54:12.483Z,16.63
2018-12-30T05:56:40.625Z,15.50
2018-12-30T05:59:08.518Z,15.83
2018-12-30T06:01:36.404Z,13.90
2018-12-30T06:04:04.522Z,14.90
2018-12-30T06:06:32.658Z,16.77
2018-12-30T06:09:00.530Z,15.23
2018-12-30T06:11:28.399Z,15.40
2018-12-30T06:13:56.322Z,16.00
2018-12-30T06:16:24.187Z,15.60
2018-12-30T06:18:52.028Z,14.67
2018-12-30T06:21:19.828Z,16.80
2018-12-30T06:23:47.671Z,15.77
2018-12-30T06:26:15.539Z,15.50
2018-12-30T06:28:43.407Z,14.37
2018-12-30T06:31:11.202Z,15.57
2018-12-30T06:33:41.328Z,16.50
2018-12-30T06:36:09.280Z,15.00
2018-12-30T06:38:37.115Z,15.70
2018-12-30T06:41:04.977Z,14.57
2018-12-30T06:43:32.853Z,14.13
2018-12-30T06:46:00.687Z,14.23
2018-12-30T06:48:28.580Z,15.03
2018-12-30T06:50:56.462Z,15.70
2018-12-30T06:53:24.303Z,15.43
2018-12-30T06:55:52.181Z,15.17
2018-12-30T06:58:20.051Z,15.87
2018-12-30T07:00:48.236Z,14.77
2018-12-30T07:03:16.066Z,15.70
2018-12-30T07:05:43.884Z,14.67
2018-12-30T07:08:11.944Z,15.37
2018-12-30T07:10:39.781Z,15.17
2018-12-30T07:13:07.684Z,14.17
2018-12-30T07:15:35.552Z,14.07
2018-12-30T07:18:03.429Z,14.40
2018-12-30T07:20:31.280Z,16.30
2018-12-30T07:23:05.774Z,14.60
2018-12-30T07:25:28.781Z,14.93
2018-12-30T07:27:56.726Z,15.80
2018-12-30T07:30:24.630Z,14.70
2018-12-30T07:32:53.623Z,15.20
2018-12-30T07:35:21.499Z,13.63
2018-12-30T07:37:49.392Z,14.77
2018-12-30T07:40:17.288Z,14.53
2018-12-30T07:42:45.137Z,14.97
2018-12-30T07:45:13.292Z,13.90
2018-12-30T07:47:41.116Z,13.83
2018-12-30T07:50:08.982Z,13.93
2018-12-30T07:52:36.831Z,13.70
2018-12-30T07:55:04.729Z,13.33
2018-12-30T07:57:32.606Z,13.30
2018-12-30T08:00:00.504Z,12.73
2018-12-30T08:02:28.353Z,14.07
2018-12-30T08:04:56.224Z,14.60
2018-12-30T08:07:24.150Z,14.53
2018-12-30T08:09:52.278Z,13.67
2018-12-30T08:12:20.157Z,14.40
2018-12-30T08:14:47.998Z,13.50
2018-12-30T08:17:15.949Z,14.70
2018-12-30T08:19:43.769Z,12.20
2018-12-30T08:22:11.620Z,13.97
2018-12-30T08:24:39.500Z,13.63
2018-12-30T08:27:07.344Z,13.13
2018-12-30T08:29:35.169Z,12.13
2018-12-30T08:32:03.120Z,13.27
2018-12-30T08:34:30.960Z,12.77
2018-12-30T08:36:58.857Z,12.63
2018-12-30T08:39:26.723Z,12.83
2018-12-30T08:41:54.541Z,12.17
2018-12-30T08:44:22.398Z,13.17
2018-12-30T08:46:50.292Z,12.50
2018-12-30T08:49:18.171Z,12.37
2018-12-30T08:51:46.012Z,12.37
2018-12-30T08:54:15.570Z,13.20
2018-12-30T08:56:43.631Z,12.70
2018-12-30T08:59:11.485Z,11.23
2018-12-30T09:01:39.310Z,12.03
2018-12-30T09:04:07.143Z,11.80
2018-12-30T09:06:35.096Z,11.33
2018-12-30T09:09:03.361Z,12.10
2018-12-30T09:11:31.253Z,10.53
2018-12-30T09:13:59.345Z,11.33
2018-12-30T09:16:27.196Z,10.73
2018-12-30T09:18:55.043Z,12.10
2018-12-30T09:21:23.065Z,12.03
2018-12-30T09:23:50.905Z,12.43
2018-12-30T09:26:18.778Z,11.27
2018-12-30T09:28:46.725Z,10.60
2018-12-30T09:31:14.625Z,10.17
2018-12-30T09:33:42.565Z,10.50
2018-12-30T09:36:10.462Z,11.00
2018-12-30T09:38:38.308Z,10.50
2018-12-30T09:41:07.374Z,10.43
2018-12-30T09:43:35.529Z,10.60
2018-12-30T09:46:04.397Z,10.53
2018-12-30T09:48:33.963Z,10.40
2018-12-30T09:51:01.964Z,11.17
2018-12-30T09:53:29.804Z,10.60
2018-12-30T09:55:57.835Z,10.83
2018-12-30T09:58:25.854Z,10.90
2018-12-30T10:00:53.711Z,10.33
2018-12-30T10:03:21.933Z,10.60
2018-12-30T10:05:49.842Z,11.30
2018-12-30T10:08:17.812Z,10.43
2018-12-30T10:10:45.752Z,10.43
2018-12-30T10:13:14.155Z,10.30
2018-12-30T10:15:42.081Z,11.43
2018-12-30T10:18:10.135Z,11.00
2018-12-30T10:20:38.113Z,11.30
2018-12-30T10:23:05.985Z,10.10
2018-12-30T10:25:34.132Z,10.20
2018-12-30T10:28:02.050Z,10.60
2018-12-30T10:30:29.992Z,10.17
2018-12-30T10:32:58.932Z,10.70
2018-12-30T10:35:28.584Z,11.50
2018-12-30T10:37:56.733Z,10.23
2018-12-30T10:40:24.626Z,10.40
2018-12-30T10:42:52.493Z,9.40
2018-12-30T10:45:20.394Z,9.50
2018-12-30T10:47:48.280Z,9.63
2018-12-30T10:50:16.251Z,9.80
2018-12-30T10:52:44.733Z,9.67
2018-12-30T10:55:12.803Z,9.33
2018-12-30T10:57:40.709Z,9.87
2018-12-30T11:00:08.663Z,9.37
2018-12-30T11:02:36.555Z,10.50
2018-12-30T11:05:04.522Z,9.90
2018-12-30T11:07:32.417Z,8.80
2018-12-30T11:10:00.401Z,10.30
2018-12-30T11:12:28.569Z,10.60
2018-12-30T11:14:56.472Z,10.30
2018-12-30T11:17:24.322Z,10.53
2018-12-30T11:19:53.349Z,9.63
2018-12-30T11:22:21.233Z,10.30
2018-12-30T11:24:49.079Z,10.00
2018-12-30T11:27:17.047Z,10.90
2018-12-30T11:29:44.966Z,9.47
2018-12-30T11:32:13.218Z,9.80
2018-12-30T11:34:42.894Z,11.17
2018-12-30T11:37:11.004Z,10.03
2018-12-30T11:39:38.858Z,9.97
2018-12-30T11:42:06.826Z,10.53
2018-12-30T11:44:35.088Z,12.00
2018-12-30T11:47:03.447Z,10.83
2018-12-30T11:49:31.570Z,9.50
2018-12-30T11:51:59.588Z,11.40
2018-12-30T11:54:27.830Z,10.00
2018-12-30T11:56:55.858Z,10.03
2018-12-30T11:59:23.868Z,10.93
2018-12-30T12:01:51.831Z,10.83
2018-12-30T12:04:19.809Z,10.30
2018-12-30T12:06:49.011Z,11.23
2018-12-30T12:09:17.358Z,11.33
2018-12-30T12:11:45.803Z,9.43
2018-12-30T12:14:13.712Z,10.70
2018-12-30T12:16:41.623Z,10.10
2018-12-30T12:19:09.550Z,9.27
2018-12-30T12:21:37.507Z,10.13
2018-12-30T12:24:05.404Z,10.70
2018-12-30T12:26:33.271Z,11.00
2018-12-30T12:29:01.129Z,10.40
2018-12-30T12:31:29.050Z,10.77
2018-12-30T12:33:57.059Z,9.40
2018-12-30T12:36:25.259Z,9.90
2018-12-30T12:38:53.269Z,10.03
2018-12-30T12:41:21.272Z,9.97
2018-12-30T12:43:49.515Z,10.53
2018-12-30T12:46:17.381Z,8.77
2018-12-30T12:48:45.317Z,9.43
2018-12-30T12:51:13.250Z,10.40
2018-12-30T12:53:41.192Z,10.00
2018-12-30T12:56:09.369Z,9.80
2018-12-30T12:58:37.476Z,10.40
2018-12-30T13:01:05.582Z,10.57
2018-12-30T13:03:33.569Z,10.70
2018-12-30T13:06:02.572Z,10.20
2018-12-30T13:08:30.475Z,9.90
2018-12-30T13:10:58.500Z,10.70
2018-12-30T13:13:26.307Z,10.87
2018-12-30T13:15:54.567Z,10.63
2018-12-30T13:18:22.529Z,11.60
2018-12-30T13:20:50.397Z,10.50
2018-12-30T13:23:18.441Z,11.00
2018-12-30T13:25:46.339Z,10.93
2018-12-30T13:28:14.316Z,10.70
2018-12-30T13:30:42.247Z,10.67
2018-12-30T13:33:10.124Z,10.57
2018-12-30T13:35:43.301Z,10.10
2018-12-30T13:38:07.695Z,10.40
2018-12-30T13:40:35.520Z,10.60
2018-12-30T13:43:03.404Z,10.00
2018-12-30T13:45:32.307Z,11.40
2018-12-30T13:48:01.073Z,11.00
2018-12-30T13:50:28.923Z,9.80
2018-12-30T13:52:56.890Z,11.00
2018-12-30T13:55:24.729Z,9.93
2018-12-30T13:57:52.611Z,11.03
2018-12-30T14:00:20.444Z,11.23
2018-12-30T14:02:48.286Z,10.37
2018-12-30T14:05:16.197Z,10.73
2018-12-30T14:07:44.037Z,9.83
2018-12-30T14:10:11.885Z,11.57
2018-12-30T14:12:39.759Z,12.23
2018-12-30T14:15:07.771Z,12.33
2018-12-30T14:17:35.686Z,11.43
2018-12-30T14:20:03.747Z,11.43
2018-12-30T14:22:31.615Z,11.43
2018-12-30T14:24:59.447Z,12.00
2018-12-30T14:27:27.272Z,11.17
2018-12-30T14:29:55.094Z,11.27
2018-12-30T14:32:22.991Z,10.93
2018-12-30T14:34:50.921Z,11.83
2018-12-30T14:37:18.793Z,11.53
2018-12-30T14:39:46.740Z,12.37
2018-12-30T14:42:14.597Z,12.23
2018-12-30T14:44:42.587Z,11.90
2018-12-30T14:47:10.498Z,11.57
2018-12-30T14:49:39.339Z,12.17
2018-12-30T14:52:07.191Z,11.43
2018-12-30T14:54:35.020Z,11.90
2018-12-30T14:57:02.905Z,11.67
2018-12-30T14:59:30.718Z,12.57
2018-12-30T15:01:58.569Z,13.37
2018-12-30T15:04:26.435Z,11.90
2018-12-30T15:06:54.313Z,12.00
2018-12-30T15:09:23.016Z,10.97
2018-12-30T15:11:51.048Z,12.60
2018-12-30T15:14:18.918Z,12.60
2018-12-30T15:16:46.998Z,11.80
2018-12-30T15:19:14.854Z,13.10
2018-12-30T15:21:42.722Z,11.70
2018-12-30T15:24:10.632Z,10.80
2018-12-30T15:26:38.488Z,13.27
2018-12-30T15:29:06.517Z,12.23
2018-12-30T15:31:34.408Z,12.70
2018-12-30T15:34:02.288Z,12.70
2018-12-30T15:36:30.185Z,11.77
2018-12-30T15:38:58.041Z,12.90
2018-12-30T15:41:25.834Z,12.33
2018-12-30T15:43:53.662Z,12.70
2018-12-30T15:46:21.564Z,13.00
2018-12-30T15:48:49.425Z,13.67
2018-12-30T15:51:17.308Z,12.00
2018-12-30T15:53:45.128Z,12.40
2018-12-30T15:56:13.170Z,12.57
2018-12-30T15:58:40.986Z,13.40
2018-12-30T16:01:08.824Z,11.97
2018-12-30T16:03:36.656Z,11.50
2018-12-30T16:06:04.817Z,10.87
2018-12-30T16:08:32.647Z,12.37
2018-12-30T16:11:00.531Z,12.90
2018-12-30T16:13:28.612Z,12.70
2018-12-30T16:15:56.403Z,12.20
2018-12-30T16:18:24.352Z,12.43
2018-12-30T16:20:52.418Z,12.90
2018-12-30T16:23:20.394Z,11.70
2018-12-30T16:25:49.345Z,11.83
2018-12-30T16:28:17.270Z,12.67
2018-12-30T16:30:45.165Z,11.10
2018-12-30T16:33:13.077Z,14.10
2018-12-30T16:35:40.890Z,12.30
2018-12-30T16:38:08.769Z,11.90
2018-12-30T16:40:36.692Z,11.57
2018-12-30T16:43:04.545Z,15.80
2018-12-30T16:45:32.410Z,13.23
2018-12-30T16:48:00.241Z,12.60
2018-12-30T16:50:28.111Z,10.87
2018-12-30T16:52:55.983Z,13.03
2018-12-30T16:55:23.893Z,11.33
2018-12-30T16:57:52.284Z,11.60
2018-12-30T17:00:20.271Z,11.27
2018-12-30T17:02:48.139Z,11.97
2018-12-30T17:05:16.012Z,11.63
2018-12-30T17:07:43.811Z,12.17
2018-12-30T17:10:11.709Z,10.83
2018-12-30T17:12:39.643Z,11.83
2018-12-30T17:15:07.830Z,11.90
2018-12-30T17:17:35.709Z,11.13
2018-12-30T17:20:03.904Z,11.37
2018-12-30T17:22:31.764Z,11.13
2018-12-30T17:24:59.651Z,10.93
2018-12-30T17:27:27.565Z,11.87
2018-12-30T17:29:58.551Z,11.40
2018-12-30T17:32:26.464Z,12.07
2018-12-30T17:34:54.851Z,11.90
2018-12-30T17:37:22.726Z,11.07
2018-12-30T17:39:50.555Z,11.03
2018-12-30T17:42:18.488Z,11.77
2018-12-30T17:44:46.472Z,12.20
2018-12-30T17:47:14.410Z,11.97
2018-12-30T17:49:42.265Z,11.80
2018-12-30T17:52:10.157Z,10.30
2018-12-30T17:54:38.133Z,11.43
2018-12-30T17:57:06.071Z,11.70
2018-12-30T17:59:33.950Z,11.63
2018-12-30T18:02:01.798Z,14.63
2018-12-30T18:04:29.693Z,11.57
2018-12-30T18:07:00.510Z,11.20
2018-12-30T18:09:28.385Z,11.47
2018-12-30T18:11:56.228Z,11.17
2018-12-30T18:14:24.093Z,11.57
2018-12-30T18:16:51.998Z,13.37
2018-12-30T18:19:19.975Z,13.20
2018-12-30T18:21:47.881Z,12.77
2018-12-30T18:24:15.827Z,12.57
2018-12-30T18:26:43.791Z,11.00
2018-12-30T18:29:11.643Z,11.57
2018-12-30T18:31:41.751Z,10.97
2018-12-30T18:34:15.043Z,10.80
2018-12-30T18:36:43.859Z,11.33
2018-12-30T18:39:11.814Z,11.40
2018-12-30T18:41:40.691Z,10.23
2018-12-30T18:44:08.823Z,12.07
2018-12-30T18:46:36.877Z,11.43
2018-12-30T18:49:04.763Z,11.47
2018-12-30T18:51:32.939Z,11.23
2018-12-30T18:54:02.895Z,10.80
2018-12-30T18:56:30.947Z,11.00
2018-12-30T18:58:58.877Z,11.23
2018-12-30T19:01:26.886Z,10.50
2018-12-30T19:03:54.821Z,10.33
2018-12-30T19:06:22.940Z,11.00
2018-12-30T19:08:50.819Z,11.47
2018-12-30T19:11:18.729Z,11.53
2018-12-30T19:13:46.606Z,13.13
2018-12-30T19:16:14.434Z,11.13
2018-12-30T19:18:42.249Z,11.13
2018-12-30T19:21:10.173Z,11.97
2018-12-30T19:23:37.992Z,11.10
2018-12-30T19:26:05.876Z,12.53
2018-12-30T19:28:36.952Z,11.10
2018-12-30T19:31:04.986Z,11.23
2018-12-30T19:33:33.249Z,10.50
2018-12-30T19:36:01.124Z,11.40
2018-12-30T19:38:28.967Z,11.20
2018-12-30T19:40:56.791Z,11.13
2018-12-30T19:43:24.662Z,11.60
2018-12-30T19:45:52.827Z,11.53
2018-12-30T19:48:20.792Z,10.53
2018-12-30T19:50:48.635Z,11.63
2018-12-30T19:53:16.496Z,12.53
2018-12-30T19:55:44.318Z,11.23
2018-12-30T19:58:12.171Z,10.87
2018-12-30T20:00:40.052Z,11.10
2018-12-30T20:03:07.945Z,12.40
2018-12-30T20:05:35.845Z,11.33
2018-12-30T20:08:03.683Z,11.70
2018-12-30T20:10:31.505Z,12.27
2018-12-30T20:12:59.607Z,11.30
2018-12-30T20:15:27.492Z,12.00
2018-12-30T20:17:55.318Z,12.10
2018-12-30T20:20:23.148Z,11.47
2018-12-30T20:22:51.065Z,10.80
2018-12-30T20:25:19.012Z,11.10
2018-12-30T20:27:46.956Z,11.03
2018-12-30T20:30:14.793Z,11.33
2018-12-30T20:32:42.633Z,11.03
2018-12-30T20:35:10.480Z,10.97
2018-12-30T20:37:38.340Z,11.17
2018-12-30T20:40:06.309Z,11.93
2018-12-30T20:42:34.192Z,10.70
2018-12-30T20:45:02.207Z,11.77
2018-12-30T20:47:30.036Z,11.50
2018-12-30T20:49:57.924Z,11.80
2018-12-30T20:52:25.784Z,11.37
2018-12-30T20:54:53.609Z,11.33
2018-12-30T20:57:21.477Z,11.67
2018-12-30T20:59:49.369Z,12.37
2018-12-30T21:02:17.258Z,12.50
2018-12-30T21:04:45.103Z,11.90
2018-12-30T21:07:13.020Z,11.60
2018-12-30T21:09:40.889Z,12.00
2018-12-30T21:12:08.711Z,13.07
2018-12-30T21:14:36.561Z,11.70
2018-12-30T21:17:04.464Z,11.40
2018-12-30T21:19:32.417Z,12.30
2018-12-30T21:22:00.267Z,11.27
2018-12-30T21:24:28.267Z,11.63
2018-12-30T21:26:56.213Z,11.17
2018-12-30T21:29:24.138Z,12.97
2018-12-30T21:31:52.114Z,11.43
2018-12-30T21:34:20.016Z,13.40
2018-12-30T21:36:47.875Z,14.03
2018-12-30T21:39:15.872Z,12.60
2018-12-30T21:41:43.821Z,12.97
2018-12-30T21:44:11.702Z,12.93
2018-12-30T21:46:39.636Z,12.67
2018-12-30T21:49:07.502Z,13.37
2018-12-30T21:51:35.436Z,13.27
2018-12-30T21:54:03.248Z,12.77
2018-12-30T21:56:31.178Z,13.43
2018-12-30T21:58:59.003Z,12.77
2018-12-30T22:01:26.871Z,12.53
2018-12-30T22:03:54.778Z,14.23
2018-12-30T22:06:22.645Z,13.83
2018-12-30T22:08:50.538Z,12.70
2018-12-30T22:11:18.655Z,14.33
2018-12-30T22:13:46.572Z,13.77
2018-12-30T22:16:14.449Z,12.43
2018-12-30T22:18:42.406Z,14.00
2018-12-30T22:21:10.371Z,12.87
2018-12-30T22:23:38.500Z,13.60
2018-12-30T22:26:06.367Z,14.87
2018-12-30T22:28:34.189Z,13.80
2018-12-30T22:31:01.959Z,13.23
2018-12-30T22:33:29.859Z,13.93
2018-12-30T22:35:57.672Z,13.57
2018-12-30T22:38:25.564Z,14.50
2018-12-30T22:40:53.402Z,14.10
2018-12-30T22:43:21.427Z,13.20
2018-12-30T22:45:49.407Z,13.27
2018-12-30T22:48:17.341Z,14.90
2018-12-30T22:50:45.239Z,14.07
2018-12-30T22:53:13.304Z,13.20
2018-12-30T22:55:41.227Z,13.70
2018-12-30T22:58:09.174Z,14.40
2018-12-30T23:00:57.780Z,13.90
2018-12-30T23:03:25.610Z,14.67
2018-12-30T23:05:54.449Z,14.57
2018-12-30T23:08:22.348Z,15.53
2018-12-30T23:10:54.273Z,15.40
2018-12-30T23:13:22.143Z,13.47
2018-12-30T23:15:50.168Z,14.27
2018-12-30T23:18:17.995Z,15.37
2018-12-30T23:20:45.872Z,14.90
2018-12-30T23:23:13.846Z,14.27
2018-12-30T23:25:41.682Z,15.67
2018-12-30T23:28:09.533Z,13.53
2018-12-30T23:30:37.387Z,17.13
2018-12-30T23:33:05.217Z,16.20
2018-12-30T23:35:33.136Z,15.90
2018-12-30T23:38:00.964Z,16.60
2018-12-30T23:40:28.813Z,16.30
2018-12-30T23:42:56.732Z,15.50
2018-12-30T23:45:25.418Z,16.00
2018-12-30T23:47:53.269Z,15.93
2018-12-30T23:50:21.224Z,16.77
2018-12-30T23:52:49.200Z,15.70
2018-12-30T23:55:17.079Z,17.23
2018-12-30T23:57:44.906Z,15.53
